• Join FlightAware (Why Join?)
  • Login
  • US Flag 
05:11AM EDT


 

Airport Tracker/Info


-or-


 

Live Flight TrackerFlight Track Log ✈ N81AX ✈ 29-Apr-2013 ✈ KJWN - KHOU

Flight Track Log - Related Links

Times and Time Zones

All times are in EDT time to prevent confusion due to time zone crossing. See the N81AX flight status page for this flight to view local times or setup timezone preferences in your user account.

Time Position Orientation Groundspeed Altitude Reporting Facility
EDT Latitude Longitude Course Direction KTS MPH feet Rate Location/Type
09:01PM 36.1333 -86.9000 202° Southwest 187 215 3,100  Level Nashville TRACON
09:02PM 36.0667 -86.9333 202° Southwest 280 322 6,600 3,480 Climbing Nashville TRACON
09:03PM 35.9875 -86.9836 207° Southwest 296 341 10,800 3,360 Climbing Memphis Center
09:04PM 35.8972 -87.0333 204° Southwest 310 357 13,800 3,360 Climbing Memphis Center
09:05PM 35.8131 -87.0881 208° Southwest 337 388 17,600 3,120 Climbing Memphis Center
09:06PM 35.7467 -87.1828 229° Southwest 350 403 20,000 2,580 Climbing Memphis Center
09:07PM 35.6847 -87.2875 234° Southwest 373 429 22,800 2,460 Climbing Memphis Center
09:08PM 35.6078 -87.3872 227° Southwest 398 458 25,000 1,680 Climbing Memphis Center
09:09PM 35.5228 -87.4925 225° Southwest 414 476 26,200 1,320 Climbing Memphis Center
09:10PM 35.4333 -87.6000 224° Southwest 437 503 27,700 1,620 Climbing Memphis Center
09:11PM 35.3564 -87.7017 227° Southwest 455 524 29,500 1,800 Climbing Memphis Center
09:12PM 35.2692 -87.8164 227° Southwest 455 524 31,400 1,500 Climbing Memphis Center
09:13PM 35.1839 -87.9333 228° Southwest 455 524 32,500 1,620 Climbing Memphis Center
09:14PM 35.0881 -88.0553 226° Southwest 455 524 34,700 2,100 Climbing Memphis Center
09:15PM 35.0169 -88.1486 227° Southwest 450 518 36,800 1,500 Climbing Memphis Center
09:16PM 34.9331 -88.2547 226° Southwest 444 511 37,700 600 Climbing Memphis Center
09:17PM 34.8472 -88.3556 224° Southwest 437 503 38,100 660 Climbing Memphis Center
09:18PM 34.7569 -88.4561 222° Southwest 437 503 39,100 420 Climbing Memphis Center
09:19PM 34.6708 -88.5492 222° Southwest 428 493 39,000 -60 Descending Memphis Center
09:20PM 34.5783 -88.6594 224° Southwest 423 487 39,000  Level Memphis Center
09:21PM 34.4964 -88.7594 225° Southwest 423 487 39,000  Level Memphis Center
09:22PM 34.4119 -88.8542 223° Southwest 423 487 39,000 300 Level Memphis Center
09:23PM 34.3317 -88.9586 227° Southwest 418 481 39,600 600 Climbing Memphis Center
09:24PM 34.2494 -89.0581 225° Southwest 418 481 40,200 780 Climbing Memphis Center
09:25PM 34.1669 -89.1572 225° Southwest 424 488 41,200 900 Climbing Memphis Center
09:26PM 34.0864 -89.2561 225° Southwest 419 482 42,100 540 Climbing Memphis Center
09:27PM 34.0058 -89.3525 225° Southwest 412 474 42,300 360 Climbing Memphis Center
09:28PM 33.9314 -89.4358 223° Southwest 412 474 42,900 300 Climbing Memphis Center
09:29PM 33.8528 -89.5342 226° Southwest 412 474 43,000  Climbing Memphis Center
09:30PM 33.7636 -89.6400 225° Southwest 407 468 43,000  Level Memphis Center
09:31PM 33.6847 -89.7381 226° Southwest 407 468 43,000  Level Memphis Center
09:32PM 33.6019 -89.8383 225° Southwest 407 468 43,000  Level Memphis Center
09:33PM 33.5292 -89.9286 226° Southwest 407 468 43,000  Level Memphis Center
09:34PM 33.4481 -90.0261 225° Southwest 407 468 43,000  Level Memphis Center
09:35PM 33.3628 -90.1233 224° Southwest 407 468 43,000  Level Memphis Center
09:36PM 33.2814 -90.2231 226° Southwest 407 468 43,000  Level Memphis Center
09:37PM 33.1958 -90.3200 223° Southwest 412 474 43,000  Level Memphis Center
09:38PM 33.1144 -90.4167 225° Southwest 412 474 43,000  Level Memphis Center
09:39PM 33.0308 -90.5158 225° Southwest 417 480 43,000  Level Memphis Center
09:40PM 32.9472 -90.6122 224° Southwest 417 480 43,000  Level Memphis Center
09:41PM 32.8636 -90.7083 224° Southwest 417 480 43,000  Level Memphis Center
09:42PM 32.7692 -90.8169 224° Southwest 422 486 43,000  Level Memphis Center
09:43PM 32.6853 -90.9103 223° Southwest 422 486 43,000  Level Memphis Center
09:45PM 32.5239 -91.0931 224° Southwest 425 489 43,000  Level Houston Center
09:47PM 32.4394 -91.1889 224° Southwest 422 486 43,000  Level Houston Center
09:48PM 32.3547 -91.2858 224° Southwest 421 484 43,000  Level Houston Center
09:49PM 32.2536 -91.4022 224° Southwest 424 488 43,000  Level Houston Center
09:50PM 32.1700 -91.5003 225° Southwest 423 487 43,000  Level Houston Center
09:51PM 32.0875 -91.5983 225° Southwest 423 487 43,000  Level Houston Center
09:52PM 32.0217 -91.7086 235° Southwest 411 473 43,000  Level Houston Center
09:53PM 31.9631 -91.8258 240° Southwest 414 476 43,000  Level Houston Center
09:54PM 31.9058 -91.9431 240° Southwest 414 476 43,000  Level Houston Center
09:55PM 31.8403 -92.0681 238° Southwest 409 471 43,000  Level Houston Center
09:56PM 31.7803 -92.1831 238° Southwest 411 473 43,000  Level Houston Center
09:57PM 31.7225 -92.2956 239° Southwest 407 468 43,000  Level Houston Center
09:58PM 31.6619 -92.4092 238° Southwest 410 472 43,000  Level Houston Center
09:59PM 31.6003 -92.5214 237° Southwest 410 472 43,000  Level Houston Center
10:00PM 31.5397 -92.6325 237° Southwest 409 471 43,000  Level Houston Center
10:01PM 31.4772 -92.7439 237° Southwest 411 473 43,000  Level Houston Center
10:02PM 31.4167 -92.8575 238° Southwest 412 474 43,000  Level Houston Center
10:03PM 31.3547 -92.9678 237° Southwest 409 471 43,000  Level Houston Center
10:04PM 31.2817 -93.1033 238° Southwest 411 473 43,000  Level Houston Center
10:05PM 31.2200 -93.2131 237° Southwest 408 470 43,000  Level Houston Center
10:06PM 31.1589 -93.3258 238° Southwest 410 472 43,000  Level Houston Center
10:07PM 31.0978 -93.4369 237° Southwest 410 472 43,000  Level Houston Center
10:08PM 31.0344 -93.5475 236° Southwest 411 473 43,000  Level Houston Center
10:09PM 30.9725 -93.6594 237° Southwest 413 475 43,000 -120 Level Houston Center
10:10PM 30.9103 -93.7692 237° Southwest 410 472 42,800 -600 Descending Houston Center
10:11PM 30.8481 -93.8767 236° Southwest 404 465 41,900 -2,100 Descending Houston Center
10:12PM 30.7908 -93.9833 238° Southwest 394 453 38,600 -3,300 Descending Houston Center
10:13PM 30.7183 -94.1061 236° Southwest 387 445 35,200 -3,600 Descending Houston Center
10:14PM 30.6619 -94.2111 238° Southwest 383 441 31,400 -4,380 Descending Houston Center
10:15PM 30.6233 -94.2842 238° Southwest 389 448 27,900 -5,040 Descending Houston Center
10:15PM 30.6047 -94.3206 239° Southwest 397 457 26,200 -5,040 Descending Houston Center
10:16PM 30.5647 -94.3939 238° Southwest 415 478 22,800 -4,560 Descending Houston Center
10:16PM 30.5447 -94.4331 239° Southwest 409 471 21,600 -3,840 Descending Houston Center
10:17PM 30.5067 -94.5083 240° Southwest 404 465 19,000 -3,300 Descending Houston Center
10:17PM 30.4933 -94.5353 240° Southwest 399 459 18,300 -3,060 Descending Houston Center
10:18PM 30.4406 -94.6067 229° Southwest 346 398 15,900 -2,880 Descending Houston Center
10:18PM 30.4306 -94.6219 233° Southwest 361 415 15,400 -2,580 Descending Houston Center
10:19PM 30.3797 -94.6944 231° Southwest 349 402 13,300 -2,280 Descending Houston Center
10:19PM 30.3581 -94.7264 232° Southwest 352 405 13,100 -300 Descending Houston Center
10:20PM 30.3228 -94.7792 232° Southwest 336 387 13,000 -120 Descending Houston Center
10:20PM 30.3025 -94.8125 235° Southwest 340 391 13,000 -120 Level Houston Center
10:21PM 30.2661 -94.8686 233° Southwest 342 394 12,900 60 Descending Houston Center
10:21PM 30.2450 -94.9022 234° Southwest 345 397 13,100  Climbing Houston Center
10:22PM 30.2114 -94.9578 235° Southwest 341 392 12,900 -720 Descending Houston Center
10:22PM 30.1922 -94.9883 234° Southwest 334 384 12,400 -1,680 Descending Houston Center
10:23PM 30.1603 -95.0392 234° Southwest 313 360 11,200 -1,680 Descending Houston Center
10:23PM 30.1342 -95.0586 213° Southwest 316 364 10,700 -1,200 Descending Houston Center
10:24PM 30.0764 -95.0833 200° South 307 353 10,000 -600 Descending Houston Center
10:24PM 30.0525 -95.0928 199° South 318 366 10,100  Climbing Houston Center
10:25PM 29.9939 -95.1225 204° Southwest 320 368 10,000  Descending Houston Center
10:25PM 29.9708 -95.1322 200° South 319 367 10,100 -120 Climbing Houston Center
10:26PM 29.9156 -95.1611 204° Southwest 290 334 9,900 -540 Descending Houston Center
10:26PM 29.8967 -95.1708 204° Southwest 299 344 9,600 -1,680 Descending Houston Center
10:27PM 29.8472 -95.1958 204° Southwest 269 310 8,200 -1,980 Descending Houston Center
10:27PM 29.8269 -95.2022 195° South 276 318 7,600 -1,920 Descending Houston Center
10:28PM 29.7744 -95.2242 200° South 278 320 6,300 -1,560 Descending Houston Center
10:28PM 29.7389 -95.2233 179° South 277 319 6,000 -300 Descending Houston Center
10:29PM 29.6950 -95.2289 186° South 265 305 6,000  Level Houston Center
10:29PM 29.6672 -95.2300 182° South 265 305 6,000  Level Houston Center
10:30PM 29.6200 -95.2356 186° South 264 304 6,000  Level Houston Center
10:30PM 29.5958 -95.2378 185° South 266 306 6,000 -720 Level Houston Center
10:31PM 29.5542 -95.2725 216° Southwest 287 330 5,300 -1,380 Descending Houston Center
10:31PM 29.5372 -95.2925 226° Southwest 278 320 4,600 -2,100 Descending Houston Center
10:32PM 29.5039 -95.3433 233° Southwest 287 330 3,200 -1,920 Descending Houston Center
10:32PM 29.4964 -95.3692 252° West 283 326 2,700 -1,140 Descending Houston Center
10:33PM 29.5172 -95.4186 296° West 266 306 2,100 -720 Descending Houston Center
10:33PM 29.5364 -95.4072 27° Northeast 282 325 2,000  Descending Houston Center
10:34PM 29.5650 -95.3672 51° Northeast 235 270 2,100  Climbing Houston Center
10:34PM 29.5783 -95.3511 46° Northeast 244 281 2,000 -600 Descending Houston Center
10:35PM 29.6031 -95.3267 41° Northeast 158 182 1,500 -900 Descending Houston Center
10:35PM 29.6119 -95.3161 46° Northeast 190 219 1,100 -1,200 Descending Houston Center
10:36PM 29.6297 -95.2947 46° Northeast 134 154 300 -1,020 Descending Houston Center
10:36PM 29.6381 -95.2853 45° Northeast 140 161 100 -420 Descending Houston Center